This is the latest recevied weather packets stored in our database for station/object CE3JSG-13. If no packets are shown the sender has not sent any weather packets the latest 10 day(s).
| Time | Temp. | Humidity | Pressure | Rain* | Wind** | Luminosity | Snow |
|---|---|---|---|---|---|---|---|
| 1777781536 | 17.22° C | 50% | 1017 hPa | - | - | - | - |
| 1777781116 | 17.22° C | 51% | 1017.9 hPa | - | - | - | - |
| 1777780695 | 17.78° C | 50% | 1016.7 hPa | - | - | - | - |
| 1777780277 | 17.78° C | 51% | 1017.3 hPa | - | - | - | - |
| 1777779856 | 17.78° C | 51% | 1017.6 hPa | - | - | - | - |
| 1777779436 | 17.78° C | 49% | 1016.1 hPa | - | - | - | - |
| 1777779017 | 17.78° C | 51% | 1017.2 hPa | - | - | - | - |
| 1777778596 | 17.78° C | 50% | 1017.5 hPa | - | - | - | - |
| 1777778176 | 17.78° C | 48% | 1017.4 hPa | - | - | - | - |
| 1777777756 | 18.33° C | 48% | 1017.2 hPa | - | - | - | - |
| 1777777336 | 18.89° C | 47% | 1016.1 hPa | - | - | - | - |
| 1777776916 | 18.33° C | 47% | 1016.5 hPa | - | - | - | - |
| 1777776496 | 18.33° C | 47% | 1016.4 hPa | - | - | - | - |
| 1777776076 | 18.33° C | 47% | 1016.3 hPa | - | - | - | - |
| 1777775656 | 18.33° C | 47% | 1015.8 hPa | - | - | - | - |
| 1777775236 | 17.78° C | 49% | 1014.8 hPa | - | - | - | - |
| 1777774816 | 17.22° C | 53% | 1017 hPa | - | - | - | - |
| 1777774395 | 17.78° C | 53% | 1016.9 hPa | - | - | - | - |
| 1777773976 | 17.78° C | 50% | 1016.9 hPa | - | - | - | - |
| 1777773556 | 18.33° C | 47% | 1015.9 hPa | - | - | - | - |
| 1777773136 | 18.33° C | 47% | 1016 hPa | - | - | - | - |
| 1777772716 | 18.33° C | 49% | 1016.9 hPa | - | - | - | - |
| 1777772296 | 18.89° C | 46% | 1016.2 hPa | - | - | - | - |
| 1777771876 | 19.44° C | 45% | 1015.5 hPa | - | - | - | - |
| 1777771456 | 19.44° C | 46% | 1016 hPa | - | - | - | - |
* Rain since midnight (hover to see other rain measurements)
** Current wind speed in m/s (hover to see current wind gust speed)